Track Масный Дмитрий

Time Latitude Longitude Accuracy (66% radius in meters) Altitude (meters) Speed (km/hour) Bearing (degrees) Battery (%) GPS flag
06:19:33 57.202092 60.120570 0 0 0 0 1 delete
06:19:32 57.202140 60.120538 0 0 0 0 1 delete
06:19:31 57.202188 60.120500 0 0 0 0 1 delete
06:19:30 57.202235 60.120462 0 0 0 0 1 delete
06:19:29 57.202282 60.120425 0 0 0 0 1 delete
06:19:28 57.202327 60.120385 0 0 0 0 1 delete
06:19:27 57.202368 60.120348 0 0 0 0 1 delete
06:19:26 57.202408 60.120312 0 0 0 0 1 delete
06:19:25 57.202447 60.120278 0 0 0 0 1 delete
06:19:24 57.202485 60.120247 0 0 0 0 1 delete
06:19:23 57.202525 60.120213 0 0 0 0 1 delete
06:19:22 57.202563 60.120182 0 0 0 0 1 delete
06:19:21 57.202605 60.120148 0 0 0 0 1 delete
06:19:20 57.202652 60.120115 0 0 0 0 1 delete
06:19:19 57.202700 60.120078 0 0 0 0 1 delete
06:19:18 57.202747 60.120037 0 0 0 0 1 delete
06:19:17 57.202795 60.119993 0 0 0 0 1 delete
06:19:16 57.202845 60.119950 0 0 0 0 1 delete
06:19:15 57.202897 60.119908 0 0 0 0 1 delete
06:19:14 57.202947 60.119867 0 0 0 0 1 delete
06:19:13 57.202997 60.119815 0 0 0 0 1 delete
06:19:12 57.203048 60.119760 0 0 0 0 1 delete
06:19:11 57.203098 60.119702 0 0 0 0 1 delete
06:19:10 57.203147 60.119652 0 0 0 0 1 delete
06:19:09 57.203195 60.119603 0 0 0 0 1 delete
06:19:08 57.203240 60.119558 0 0 0 0 1 delete
06:19:07 57.203278 60.119518 0 0 0 0 1 delete